Aeroporto :
LOGIN :

Iscrizione | Disclaimer

   EN    FR    IT 

 










Sommario :    VFR   VFR Marginale   IFR   IFR Intensivo   IFR Molto Intensivo
Visibilità : 
Base nubi : 
>= 8 km
>= 3000ft
5 / 8 km
1000 / 3000 ft
1500m / 5 km
500 / 1000 ft
800 / 1500m
200 / 500 ft
< 800m
< 200 ft
Simboli :   Temporali  Nebbia  Neve Forte  Precipitazioni Forti  Vento > 20 kt
SIGMETs :   Varie  Temporali  Ghiacco  Turbolenza  Onda orograficha  Ceneri Vulcaniche







- Altitudine del aeroporto : 80 ft
- Codice IATA : LPL
- Carte del aeroporto


EGGP - Liverpool John Lennon

ULTIMO METAR :
  • 210720Z 18006KT CAVOK 15/14 Q1024

METARs OBSOLETI :
  • 210650Z 18007KT CAVOK 15/14 Q1024
  • 210620Z 19007KT CAVOK 15/14 Q1024
  • 210550Z 18007KT 9999 FEW045 14/13 Q1024
  • 210520Z 17006KT 130V200 9999 FEW036 15/13 Q1024
  • 210450Z 18006KT 9999 SCT036 14/13 Q1024

TAF TAF EGGP
Valido dal 21 a 06 ore il 22 a 06 ore UTC


210458Z 2106/2206 17005KT 9999 SCT025
TEMPO 2106/2119 5000 SHRA
BECMG 2112/2115 23010KT
TEMPO 2119/2206 7000 -RA
PROB30
TEMPO 2200/2206 BKN010
ATIS : +44 151 907 2000 (option 5 or ext 5150)
Met : +44 871 750 5150
Nessun NOTAM noto per questo aeroporto.



MetMap, La meteo Aeronautica in un colpo d'occhio ! - Copyright ORBIFLY Dicembre 2007 - Disclaimer

ORBIFLY MET'MAP TEAM :

Programmazione e sviluppo : Alexandra Zaïnal
Concezione e sviluppo : Baudouin d'Aumeries
Co-Programmazione e sviluppo : Marc-Olivier Méhu
Supporto tecnico e logistico : Manuel Goepfert
Aiuto per la traduzione : Arnaldo La Scala

Contatto : metmap@orbifly.com




FONTI E CREDITI :

   NOAA